Time;durP1;ratioP1;P1;durP2;ratioP2;P2;SDS_P1;SDS_P2;PMS_P1;PMS_P2;Temp;Humidity;BMP_temperature;BMP_pressure;BME280_temperature;BME280_humidity;BME280_pressure;Samples;Min_cycle;Max_cycle;Signal;HPM_P1;HPM_P2
2021/12/29 00:02:31;;;;;;;9.43;5.73;;;;;;;-0.40;91.16;96493.13;6248820;28;20555;-73
2021/12/29 00:05:33;;;;;;;10.27;6.10;;;;;;;-0.40;91.53;96495.72;6220743;28;20227;-73
2021/12/29 00:08:35;;;;;;;15.00;8.20;;;;;;;-0.42;91.58;96501.00;6253220;28;20575;-73
2021/12/29 00:11:40;;;;;;;49.57;12.87;;;;;;;-0.43;91.17;96501.06;6253169;28;20686;-73
2021/12/29 00:14:42;;;;;;;16.43;9.83;;;;;;;-0.41;91.40;96501.84;6252314;28;20642;-72
2021/12/29 00:17:45;;;;;;;16.93;8.67;;;;;;;-0.41;91.49;96505.25;6251211;28;20227;-71
2021/12/29 00:20:48;;;;;;;13.83;9.13;;;;;;;-0.40;91.24;96512.09;6252619;28;20664;-71
2021/12/29 00:23:50;;;;;;;19.57;9.37;;;;;;;-0.39;91.27;96510.34;6253397;28;20429;-71
2021/12/29 00:26:59;;;;;;;17.23;8.20;;;;;;;-0.37;91.27;96516.28;6251120;28;20235;-71
2021/12/29 00:30:01;;;;;;;16.37;9.63;;;;;;;-0.34;91.14;96528.22;6235203;28;20703;-71
2021/12/29 00:33:32;;;;;;;22.83;9.83;;;;;;;-0.36;91.12;96536.09;6252177;28;20262;-72
2021/12/29 00:36:56;;;;;;;16.73;8.80;;;;;;;-0.37;91.08;96526.63;6214823;28;20223;-71
2021/12/29 00:40:17;;;;;;;16.97;9.10;;;;;;;-0.37;91.47;96527.47;6228530;28;20231;-71
2021/12/29 00:43:38;;;;;;;12.77;7.70;;;;;;;-0.37;90.91;96539.59;6236031;28;20231;-71
2021/12/29 00:47:06;;;;;;;18.63;9.10;;;;;;;-0.36;91.50;96528.31;6247132;28;20302;-71
2021/12/29 00:50:13;;;;;;;15.07;8.60;;;;;;;-0.35;91.45;96529.16;6226104;28;20255;-73
2021/12/29 00:53:16;;;;;;;19.63;10.07;;;;;;;-0.38;91.44;96543.09;6229098;28;20309;-72
2021/12/29 00:56:18;;;;;;;20.23;9.80;;;;;;;-0.40;91.27;96526.84;6252986;28;20542;-71
2021/12/29 00:59:21;;;;;;;18.20;9.93;;;;;;;-0.43;91.00;96516.63;6251759;28;20741;-71
2021/12/29 01:02:24;;;;;;;22.40;11.30;;;;;;;-0.44;91.10;96512.34;6252753;28;20229;-71
2021/12/29 01:05:26;;;;;;;24.83;10.23;;;;;;;-0.44;91.36;96514.94;6246802;28;20272;-71
2021/12/29 01:08:28;;;;;;;26.10;11.03;;;;;;;-0.46;91.39;96527.16;6252698;28;20230;-71
2021/12/29 01:11:30;;;;;;;19.50;10.43;;;;;;;-0.49;91.63;96525.56;6251288;28;20334;-74
2021/12/29 01:14:32;;;;;;;14.97;8.80;;;;;;;-0.49;91.29;96533.31;6252332;28;20238;-71
2021/12/29 01:17:34;;;;;;;12.97;8.40;;;;;;;-0.50;91.50;96529.06;6251083;28;20766;-71
2021/12/29 01:20:36;;;;;;;18.43;9.43;;;;;;;-0.49;91.49;96524.72;6254374;28;20230;-71
2021/12/29 01:23:38;;;;;;;26.97;11.13;;;;;;;-0.47;91.41;96546.22;6255352;28;20223;-71
2021/12/29 01:26:43;;;;;;;37.73;13.07;;;;;;;-0.46;91.51;96547.88;6256887;28;20227;-71
2021/12/29 01:29:46;;;;;;;34.10;12.50;;;;;;;-0.45;91.59;96562.50;6257491;28;20235;-71
2021/12/29 01:32:49;;;;;;;25.20;11.53;;;;;;;-0.45;90.94;96560.75;6252218;28;20242;-71
2021/12/29 01:35:51;;;;;;;27.33;8.77;;;;;;;-0.45;91.21;96550.41;6221324;28;20718;-71
2021/12/29 01:38:53;;;;;;;135.67;17.17;;;;;;;-0.45;91.74;96549.56;6232232;28;20230;-71
2021/12/29 01:41:58;;;;;;;52.00;11.20;;;;;;;-0.47;91.42;96549.63;6238030;28;20227;-71
2021/12/29 01:45:00;;;;;;;46.70;12.27;;;;;;;-0.49;91.35;96548.03;6256575;28;20655;-71
2021/12/29 01:48:04;;;;;;;83.80;13.37;;;;;;;-0.50;91.74;96544.63;6244710;28;20301;-71
2021/12/29 01:51:06;;;;;;;51.33;12.80;;;;;;;-0.51;91.67;96534.34;6205205;28;20227;-71
2021/12/29 01:57:16;;;;;;;69.53;13.40;;;;;;;-0.52;91.41;96517.97;6255962;28;20734;-71
2021/12/29 02:00:23;;;;;;;116.93;16.87;;;;;;;-0.54;91.73;96511.19;6255534;28;20614;-71
2021/12/29 02:03:26;;;;;;;110.17;14.90;;;;;;;-0.57;91.32;96519.97;6248145;28;20250;-71
2021/12/29 02:06:28;;;;;;;22.73;8.87;;;;;;;-0.59;91.56;96510.59;6240765;28;20223;-72
2021/12/29 02:09:30;;;;;;;40.60;10.33;;;;;;;-0.60;91.45;96516.72;6256281;28;20223;-71
2021/12/29 02:12:33;;;;;;;24.33;8.93;;;;;;;-0.62;91.73;96524.56;6255470;28;20292;-71
2021/12/29 02:15:35;;;;;;;9.20;6.60;;;;;;;-0.63;91.53;96517.72;6256939;28;20223;-71
2021/12/29 02:18:38;;;;;;;26.03;8.67;;;;;;;-0.63;91.86;96525.50;6254485;28;20699;-71
2021/12/29 02:21:43;;;;;;;26.80;8.80;;;;;;;-0.65;91.36;96531.66;6254636;28;20233;-71
2021/12/29 02:24:52;;;;;;;8.23;5.63;;;;;;;-0.67;91.58;96544.69;6255918;28;20259;-71
2021/12/29 02:27:55;;;;;;;11.50;6.30;;;;;;;-0.66;91.44;96542.94;6255133;28;20266;-71
2021/12/29 02:30:59;;;;;;;6.70;5.20;;;;;;;-0.64;91.80;96544.53;6254280;28;20235;-71
2021/12/29 02:34:01;;;;;;;10.30;6.83;;;;;;;-0.62;91.62;96544.47;6237379;28;20238;-71
2021/12/29 02:37:04;;;;;;;38.73;8.10;;;;;;;-0.63;92.01;96542.78;6235228;28;20653;-71
2021/12/29 02:40:07;;;;;;;14.37;6.80;;;;;;;-0.68;91.70;96542.19;6253148;28;20352;-71
2021/12/29 02:43:12;;;;;;;26.30;9.03;;;;;;;-0.71;91.51;96544.97;6255239;28;20672;-73
2021/12/29 02:46:16;;;;;;;17.00;7.73;;;;;;;-0.73;91.47;96536.44;6255459;28;20258;-71
2021/12/29 02:49:19;;;;;;;23.70;8.50;;;;;;;-0.74;91.57;96538.19;6231457;28;20239;-71
2021/12/29 02:52:24;;;;;;;14.00;8.87;;;;;;;-0.76;91.43;96535.69;6249502;28;20231;-71
2021/12/29 02:55:26;;;;;;;13.93;8.37;;;;;;;-0.72;91.79;96540.69;6255136;28;20333;-71
2021/12/29 02:58:30;;;;;;;14.07;8.33;;;;;;;-0.69;91.77;96540.50;6255698;28;20694;-71
2021/12/29 03:01:33;;;;;;;10.80;7.57;;;;;;;-0.67;91.47;96543.88;6255863;28;20771;-71
2021/12/29 03:04:35;;;;;;;11.43;7.63;;;;;;;-0.65;91.72;96544.63;6241374;28;20645;-71
2021/12/29 03:07:37;;;;;;;11.87;7.63;;;;;;;-0.63;91.78;96540.19;6254852;28;20231;-73
2021/12/29 03:10:40;;;;;;;10.70;7.30;;;;;;;-0.60;91.78;96540.84;6253667;28;20227;-71
2021/12/29 03:13:42;;;;;;;12.00;7.60;;;;;;;-0.58;91.62;96543.38;6254070;28;20599;-71
2021/12/29 03:16:44;;;;;;;9.23;6.40;;;;;;;-0.54;91.73;96550.91;6252955;28;20238;-73
2021/12/29 03:19:47;;;;;;;9.57;5.90;;;;;;;-0.52;91.47;96550.81;6252992;28;20293;-74
2021/12/29 03:22:48;;;;;;;9.43;5.87;;;;;;;-0.50;91.70;96546.41;6251235;28;20265;-73
2021/12/29 03:25:52;;;;;;;7.27;5.73;;;;;;;-0.51;91.90;96542.97;6252166;28;20230;-73
2021/12/29 03:28:55;;;;;;;11.90;6.80;;;;;;;-0.49;91.77;96545.44;6255152;28;20226;-72
2021/12/29 03:31:59;;;;;;;9.83;6.93;;;;;;;-0.49;91.69;96553.22;6254168;28;20269;-73
2021/12/29 03:35:01;;;;;;;9.43;6.70;;;;;;;-0.48;91.37;96547.97;6213653;28;20237;-72
2021/12/29 03:38:07;;;;;;;10.90;6.80;;;;;;;-0.47;91.72;96551.38;6227704;28;20235;-72
2021/12/29 03:41:11;;;;;;;8.70;6.23;;;;;;;-0.46;91.67;96550.47;6250058;28;20364;-73
2021/12/29 03:44:13;;;;;;;8.13;5.87;;;;;;;-0.46;92.06;96555.66;6254184;28;20284;-73
2021/12/29 03:47:15;;;;;;;11.07;5.87;;;;;;;-0.45;91.30;96554.75;6246423;28;20440;-73
2021/12/29 03:50:17;;;;;;;8.00;5.83;;;;;;;-0.43;91.81;96551.16;6239687;28;20230;-72
2021/12/29 03:53:19;;;;;;;6.80;4.77;;;;;;;-0.39;91.61;96563.00;6252925;28;20230;-72
2021/12/29 03:56:21;;;;;;;8.23;5.70;;;;;;;-0.38;91.60;96562.09;6254425;28;20238;-72
2021/12/29 03:59:23;;;;;;;10.57;5.93;;;;;;;-0.39;91.62;96573.38;6252194;28;20372;-71
2021/12/29 04:02:25;;;;;;;8.60;5.90;;;;;;;-0.38;91.66;96571.63;6251863;28;20365;-72
2021/12/29 04:05:27;;;;;;;7.27;5.83;;;;;;;-0.38;91.25;96564.69;6252584;28;20308;-72
2021/12/29 04:08:29;;;;;;;9.17;6.37;;;;;;;-0.37;91.32;96562.94;6253490;28;20231;-72
2021/12/29 04:11:31;;;;;;;12.63;6.70;;;;;;;-0.34;91.77;96574.88;6252060;28;20239;-72
2021/12/29 04:14:33;;;;;;;10.77;6.17;;;;;;;-0.32;91.47;96575.66;6251983;28;20245;-72
2021/12/29 04:17:37;;;;;;;13.40;7.03;;;;;;;-0.30;91.48;96568.63;6252646;28;20238;-72
2021/12/29 04:20:54;;;;;;;15.03;8.87;;;;;;;-0.30;91.73;96568.63;6253039;28;20227;-72
2021/12/29 04:23:56;;;;;;;15.17;8.73;;;;;;;-0.27;91.32;96565.84;6251054;28;20231;-72
2021/12/29 04:26:59;;;;;;;14.63;7.90;;;;;;;-0.29;91.35;96568.50;6253730;28;20573;-72
2021/12/29 04:30:02;;;;;;;14.43;8.00;;;;;;;-0.28;91.46;96572.78;6251392;28;20310;-72
2021/12/29 04:33:04;;;;;;;11.83;6.60;;;;;;;-0.27;91.25;96576.22;6243356;28;20236;-72
2021/12/29 04:36:06;;;;;;;7.83;5.90;;;;;;;-0.25;91.57;96579.56;6215045;28;20640;-72
2021/12/29 04:39:08;;;;;;;11.07;6.30;;;;;;;-0.25;91.71;96576.97;6237066;28;20223;-72
2021/12/29 04:42:10;;;;;;;12.53;5.73;;;;;;;-0.24;91.14;96584.66;6250923;28;20222;-72
2021/12/29 04:45:13;;;;;;;9.93;6.03;;;;;;;-0.24;91.56;96582.06;6253052;28;20222;-72
2021/12/29 04:48:16;;;;;;;9.00;5.83;;;;;;;-0.22;91.33;96582.84;6237423;28;20274;-72
2021/12/29 04:51:24;;;;;;;11.67;7.07;;;;;;;-0.21;91.72;96578.50;6231814;28;20348;-72
2021/12/29 04:54:26;;;;;;;9.73;6.00;;;;;;;-0.20;91.87;96583.56;6253068;28;21095;-72
2021/12/29 04:57:30;;;;;;;12.33;6.43;;;;;;;-0.20;91.75;96577.56;6257294;28;20242;-72
2021/12/29 05:00:33;;;;;;;8.07;5.50;;;;;;;-0.19;91.30;96581.81;6259247;28;20815;-72
2021/12/29 05:03:40;;;;;;;9.53;6.10;;;;;;;-0.22;91.54;96593.22;6246770;28;20226;-72
2021/12/29 05:10:04;;;;;;;11.87;6.97;;;;;;;-0.22;91.35;96595.78;6257226;28;20238;-72
2021/12/29 05:13:06;;;;;;;8.87;6.03;;;;;;;-0.23;91.32;96591.53;6255689;28;20226;-72
2021/12/29 05:16:08;;;;;;;7.73;5.33;;;;;;;-0.21;91.19;96587.09;6258657;28;20235;-72
2021/12/29 05:19:10;;;;;;;10.40;6.13;;;;;;;-0.21;91.53;96594.88;6257818;28;20238;-72
2021/12/29 05:22:12;;;;;;;9.13;6.20;;;;;;;-0.20;91.56;96588.75;6257427;28;20219;-72
2021/12/29 05:25:14;;;;;;;8.30;5.40;;;;;;;-0.20;91.51;96583.56;6254719;28;20238;-72
2021/12/29 05:28:17;;;;;;;10.53;5.77;;;;;;;-0.18;91.29;96594.69;6256551;28;20223;-72
2021/12/29 05:31:19;;;;;;;7.73;4.97;;;;;;;-0.18;91.30;96589.50;6256350;28;20611;-72
2021/12/29 05:34:21;;;;;;;10.00;5.37;;;;;;;-0.19;91.36;96594.75;6227270;28;20228;-72
2021/12/29 05:37:23;;;;;;;5.77;4.30;;;;;;;-0.20;91.39;96583.56;6212324;28;20228;-72
2021/12/29 05:40:27;;;;;;;8.97;4.97;;;;;;;-0.19;91.31;96603.38;6239035;28;20231;-72
2021/12/29 05:43:29;;;;;;;7.43;4.57;;;;;;;-0.20;91.63;96606.09;6254952;28;20222;-72
2021/12/29 05:46:31;;;;;;;5.27;4.03;;;;;;;-0.19;91.45;96608.56;6254394;28;20675;-72
2021/12/29 05:49:33;;;;;;;8.10;4.70;;;;;;;-0.18;91.40;96605.06;6232987;28;20236;-72
2021/12/29 05:52:35;;;;;;;7.33;4.33;;;;;;;-0.17;91.33;96604.13;6231338;28;20236;-72
2021/12/29 05:55:41;;;;;;;6.50;3.60;;;;;;;-0.19;91.15;96611.16;6252633;28;20964;-72
2021/12/29 05:58:43;;;;;;;5.87;3.80;;;;;;;-0.19;91.05;96611.16;6256678;28;20238;-72
2021/12/29 06:01:45;;;;;;;6.10;3.57;;;;;;;-0.19;91.37;96629.31;6254183;28;20223;-72
2021/12/29 06:04:48;;;;;;;6.90;3.37;;;;;;;-0.18;91.62;96618.03;6250530;28;20284;-72
2021/12/29 06:07:50;;;;;;;5.77;2.87;;;;;;;-0.17;91.19;96622.28;6252413;28;20234;-72
2021/12/29 06:10:52;;;;;;;4.77;2.60;;;;;;;-0.16;91.58;96621.38;6235497;28;20309;-72
2021/12/29 06:13:54;;;;;;;8.43;2.70;;;;;;;-0.15;91.12;96630.00;6255711;28;20269;-72
2021/12/29 06:16:57;;;;;;;6.40;3.10;;;;;;;-0.14;91.17;96629.06;6254990;28;20227;-72
2021/12/29 06:19:59;;;;;;;4.73;3.00;;;;;;;-0.11;91.68;96629.75;6253600;28;20242;-72
2021/12/29 06:23:01;;;;;;;6.53;3.13;;;;;;;-0.01;91.42;96640.47;6253635;28;20745;-72
2021/12/29 06:26:03;;;;;;;5.30;2.37;;;;;;;0.22;91.61;96645.19;6256212;28;20227;-72
2021/12/29 06:29:05;;;;;;;5.47;2.10;;;;;;;0.34;91.66;96652.28;6256105;28;20669;-72
2021/12/29 06:32:07;;;;;;;4.17;1.80;;;;;;;0.30;91.68;96660.34;6254732;28;20266;-72
2021/12/29 06:35:11;;;;;;;5.80;1.73;;;;;;;0.32;91.88;96667.09;6217771;28;20227;-72
2021/12/29 06:38:13;;;;;;;6.50;1.93;;;;;;;0.45;92.03;96669.00;6234200;28;20634;-72
2021/12/29 06:41:15;;;;;;;3.97;1.73;;;;;;;0.51;92.13;96671.25;6254168;28;20223;-72
2021/12/29 06:44:17;;;;;;;4.17;1.90;;;;;;;0.63;91.78;96666.22;6254058;28;20223;-72
2021/12/29 06:47:19;;;;;;;7.70;1.73;;;;;;;0.67;91.79;96662.53;6249690;28;20224;-72
2021/12/29 06:50:21;;;;;;;7.43;1.53;;;;;;;0.76;92.09;96668.09;6230635;28;20262;-72
2021/12/29 06:53:23;;;;;;;5.03;1.50;;;;;;;0.95;91.84;96679.09;6228199;28;20239;-72
2021/12/29 06:56:25;;;;;;;4.00;1.53;;;;;;;1.00;92.33;96670.09;6241040;28;20227;-72
2021/12/29 06:59:27;;;;;;;3.97;1.30;;;;;;;1.05;91.82;96673.28;6255539;28;20230;-72
2021/12/29 07:02:29;;;;;;;6.83;1.53;;;;;;;1.07;92.35;96683.59;6254185;28;20716;-72
2021/12/29 07:05:32;;;;;;;5.73;1.70;;;;;;;1.09;91.84;96672.19;6231163;28;20288;-72
2021/12/29 07:08:34;;;;;;;2.43;1.20;;;;;;;1.13;92.43;96682.38;6254292;28;20227;-72
2021/12/29 07:11:37;;;;;;;3.43;1.20;;;;;;;1.12;91.76;96689.34;6254015;28;20257;-72
2021/12/29 07:14:39;;;;;;;3.87;1.17;;;;;;;1.15;91.83;96681.38;6254118;28;20369;-72
2021/12/29 07:17:41;;;;;;;3.70;1.60;;;;;;;1.28;92.39;96704.88;6255096;28;20235;-72
2021/12/29 07:20:44;;;;;;;6.47;1.40;;;;;;;1.39;92.08;96692.09;6253990;28;20603;-72
2021/12/29 07:23:46;;;;;;;3.30;1.17;;;;;;;1.50;92.48;96709.66;6254395;28;20237;-72
2021/12/29 07:26:48;;;;;;;3.80;1.10;;;;;;;1.68;92.19;96700.72;6259131;28;20309;-72
2021/12/29 07:29:50;;;;;;;3.00;1.40;;;;;;;1.99;92.58;96705.75;6256678;28;20227;-72
2021/12/29 07:32:53;;;;;;;3.67;1.03;;;;;;;2.14;92.28;96714.34;6251025;28;20228;-72
2021/12/29 07:35:55;;;;;;;2.93;1.40;;;;;;;2.18;92.45;96716.69;6230503;28;20262;-72
2021/12/29 07:38:57;;;;;;;3.17;0.90;;;;;;;2.27;92.33;96719.63;6248652;28;20219;-72
2021/12/29 07:41:59;;;;;;;2.17;0.97;;;;;;;2.30;92.49;96716.81;6254518;28;20560;-72
2021/12/29 07:45:10;;;;;;;2.37;0.90;;;;;;;2.37;92.52;96728.53;6254115;28;20227;-72
2021/12/29 07:48:13;;;;;;;3.23;1.10;;;;;;;2.93;92.96;96723.13;6240719;28;20220;-72
2021/12/29 07:51:16;;;;;;;2.23;0.83;;;;;;;3.01;93.25;96725.22;6235304;28;20710;-72
2021/12/29 07:54:21;;;;;;;2.73;1.30;;;;;;;3.07;93.01;96721.41;6252192;28;20771;-72
2021/12/29 07:57:23;;;;;;;2.67;0.93;;;;;;;3.14;92.57;96725.25;6253488;28;20225;-73
2021/12/29 08:00:26;;;;;;;4.27;1.10;;;;;;;3.36;92.97;96729.88;6252974;28;20603;-72
2021/12/29 08:03:28;;;;;;;4.77;1.40;;;;;;;3.49;93.06;96734.19;6243559;28;20250;-72
2021/12/29 08:06:30;;;;;;;3.60;1.73;;;;;;;3.85;93.39;96732.63;6246325;28;20235;-72
2021/12/29 08:09:32;;;;;;;2.00;1.10;;;;;;;3.98;92.73;96731.69;6251931;28;20841;-72
2021/12/29 08:12:37;;;;;;;3.30;1.50;;;;;;;4.17;93.63;96728.63;6252595;28;20908;-72
2021/12/29 08:15:39;;;;;;;5.53;1.57;;;;;;;4.56;93.48;96734.59;6252929;28;20269;-73
2021/12/29 08:18:41;;;;;;;4.57;1.50;;;;;;;4.73;92.83;96734.19;6253348;28;20260;-72
2021/12/29 08:21:43;;;;;;;3.50;0.97;;;;;;;4.79;92.77;96731.16;6253577;28;20743;-72
2021/12/29 08:24:45;;;;;;;1.33;0.80;;;;;;;4.84;93.39;96729.03;6252969;28;20240;-72
2021/12/29 08:27:47;;;;;;;2.77;0.93;;;;;;;4.95;93.08;96729.09;6252094;28;20231;-72
2021/12/29 08:30:51;;;;;;;1.80;1.17;;;;;;;5.10;92.97;96738.41;6251289;28;20325;-72
2021/12/29 08:33:55;;;;;;;3.03;1.00;;;;;;;5.17;92.50;96744.03;6229419;28;20737;-73
2021/12/29 08:36:57;;;;;;;5.47;0.93;;;;;;;5.20;92.67;96738.56;6216204;28;20313;-73
2021/12/29 08:39:59;;;;;;;2.70;1.00;;;;;;;5.27;92.82;96747.66;6236587;28;20239;-72
2021/12/29 08:43:03;;;;;;;2.47;0.80;;;;;;;5.29;92.67;96744.94;6250744;28;20273;-72
2021/12/29 08:46:05;;;;;;;1.97;0.60;;;;;;;5.34;92.59;96754.09;6251323;28;20230;-72
2021/12/29 08:49:07;;;;;;;2.13;0.43;;;;;;;5.41;92.37;96751.84;6231240;28;20270;-72
2021/12/29 08:52:09;;;;;;;0.77;0.60;;;;;;;5.47;92.31;96757.47;6226135;28;20243;-74
2021/12/29 08:55:13;;;;;;;1.70;0.40;;;;;;;5.54;92.01;96750.81;6249720;28;20600;-72
2021/12/29 08:58:16;;;;;;;1.53;0.70;;;;;;;5.61;92.27;96766.03;6249908;28;20238;-72
2021/12/29 09:01:19;;;;;;;0.93;0.40;;;;;;;5.67;92.29;96773.47;6252900;28;20311;-72
2021/12/29 09:04:21;;;;;;;0.47;0.40;;;;;;;5.71;92.47;96778.34;6249079;28;20661;-72
2021/12/29 09:07:23;;;;;;;0.20;0.20;;;;;;;5.75;92.45;96784.19;6251187;28;20231;-73
2021/12/29 09:10:25;;;;;;;1.13;0.30;;;;;;;5.74;92.05;96795.59;6235198;28;20238;-73
2021/12/29 09:13:29;;;;;;;0.30;0.30;;;;;;;5.76;91.63;96780.63;6249988;28;20290;-72
2021/12/29 09:16:32;;;;;;;0.47;0.40;;;;;;;5.80;91.33;96787.28;6251415;28;20317;-72
2021/12/29 09:19:39;;;;;;;2.43;0.30;;;;;;;5.89;91.02;96781.38;6250238;28;20240;-72
2021/12/29 09:22:42;;;;;;;0.40;0.37;;;;;;;5.97;90.95;96783.44;6252985;28;20234;-72
2021/12/29 09:25:46;;;;;;;0.50;0.30;;;;;;;6.08;90.86;96773.81;6251707;28;20234;-72
2021/12/29 09:28:49;;;;;;;1.23;0.50;;;;;;;6.23;90.24;96784.88;6251595;28;20604;-74
2021/12/29 09:31:51;;;;;;;1.30;0.30;;;;;;;6.37;89.65;96784.66;6250735;28;20225;-72
2021/12/29 09:34:57;;;;;;;0.40;0.30;;;;;;;6.47;89.45;96782.97;6219905;28;20608;-72
2021/12/29 09:38:00;;;;;;;0.40;0.27;;;;;;;6.52;89.23;96778.19;6231930;28;20229;-72
2021/12/29 09:41:09;;;;;;;0.50;0.40;;;;;;;6.60;nan;96786.28;6252660;28;20262;-72
2021/12/29 09:44:11;;;;;;;0.20;0.20;;;;;;;6.65;88.21;96776.28;6254118;28;20265;-72
2021/12/29 09:47:13;;;;;;;2.03;0.40;;;;;;;6.69;88.19;96776.06;6250655;28;20345;-72
2021/12/29 09:50:20;;;;;;;0.77;0.27;;;;;;;6.65;87.54;96768.41;6232478;28;20627;-72
2021/12/29 09:53:22;;;;;;;0.30;0.30;;;;;;;6.63;87.81;96772.09;6248058;28;20310;-72
2021/12/29 09:56:26;;;;;;;0.23;0.23;;;;;;;6.64;87.79;96773.78;6255412;28;20228;-72
2021/12/29 09:59:28;;;;;;;1.03;0.23;;;;;;;6.62;87.47;96771.28;6256127;28;20733;-72
2021/12/29 10:02:31;;;;;;;0.70;0.23;;;;;;;6.66;87.11;96771.88;6254983;28;20598;-72
2021/12/29 10:05:36;;;;;;;0.20;0.20;;;;;;;6.70;86.70;96780.31;6215999;28;20221;-73
2021/12/29 10:08:40;;;;;;;0.27;0.27;;;;;;;6.76;85.71;96777.22;6257312;28;20240;-72
2021/12/29 10:11:44;;;;;;;0.20;0.20;;;;;;;6.87;85.44;96795.56;6253581;28;20237;-72
2021/12/29 10:14:55;;;;;;;0.20;0.20;;;;;;;7.07;84.57;96784.31;6253931;28;20234;-72
2021/12/29 10:18:11;;;;;;;0.77;0.30;;;;;;;7.28;83.43;96782.56;6255754;28;20239;-72
2021/12/29 10:21:17;;;;;;;0.20;0.20;;;;;;;7.49;83.04;96787.00;6253876;28;20661;-72
2021/12/29 10:24:19;;;;;;;0.40;0.40;;;;;;;7.59;81.41;96790.53;6254202;28;20889;-72
2021/12/29 10:27:23;;;;;;;0.70;0.50;;;;;;;7.68;81.28;96795.88;6254527;28;20227;-72
2021/12/29 10:30:29;;;;;;;0.30;0.30;;;;;;;7.68;81.10;96797.69;6253429;28;20237;-72
2021/12/29 10:33:41;;;;;;;0.20;0.20;;;;;;;7.65;81.66;96805.81;6244794;28;20236;-72
2021/12/29 10:36:46;;;;;;;0.30;0.30;;;;;;;7.51;81.26;96804.31;6235127;28;20234;-72
2021/12/29 10:39:51;;;;;;;0.43;0.30;;;;;;;7.27;82.06;96811.56;6255041;28;20598;-72
2021/12/29 10:42:58;;;;;;;0.47;0.33;;;;;;;7.12;82.80;96818.03;6255732;28;20254;-72
2021/12/29 10:46:00;;;;;;;0.80;0.50;;;;;;;7.00;82.95;96823.28;6254701;28;20234;-72
2021/12/29 10:49:07;;;;;;;0.30;0.30;;;;;;;6.88;83.54;96829.53;6234194;28;20238;-72
2021/12/29 10:52:09;;;;;;;2.33;0.47;;;;;;;6.77;82.98;96832.16;6247344;28;20244;-72
2021/12/29 10:55:14;;;;;;;0.43;0.40;;;;;;;6.75;83.25;96831.44;6253246;28;20301;-76
2021/12/29 10:58:20;;;;;;;0.70;0.40;;;;;;;6.72;82.41;96828.22;6254109;28;20237;-72
2021/12/29 11:01:23;;;;;;;0.40;0.40;;;;;;;6.70;82.71;96836.22;6253686;28;20228;-72
2021/12/29 11:04:26;;;;;;;0.40;0.40;;;;;;;6.66;83.08;96835.63;6244047;28;20237;-72
2021/12/29 11:07:30;;;;;;;0.53;0.53;;;;;;;6.59;83.41;96834.41;6253966;28;20234;-72
2021/12/29 11:10:32;;;;;;;0.73;0.60;;;;;;;6.56;83.68;96845.16;6254336;28;20232;-72
2021/12/29 11:13:34;;;;;;;0.90;0.80;;;;;;;6.61;83.64;96847.41;6251874;28;20240;-73
2021/12/29 11:16:38;;;;;;;0.50;0.50;;;;;;;6.69;84.45;96841.59;6254583;28;20699;-72
2021/12/29 11:19:51;;;;;;;1.50;0.70;;;;;;;6.80;83.87;96838.94;6252861;28;20244;-72
2021/12/29 11:23:16;;;;;;;0.97;0.63;;;;;;;6.91;83.85;96842.38;6253188;28;20316;-72
2021/12/29 11:26:28;;;;;;;0.70;0.60;;;;;;;6.92;84.14;96849.31;6254246;28;20319;-72
2021/12/29 11:29:30;;;;;;;0.60;0.60;;;;;;;6.84;84.08;96851.72;6254135;28;20736;-72
2021/12/29 11:32:37;;;;;;;0.70;0.70;;;;;;;6.70;84.23;96848.47;6254332;28;20227;-72
2021/12/29 11:35:43;;;;;;;2.30;1.10;;;;;;;6.54;84.86;96847.06;6221981;28;20245;-71
2021/12/29 11:38:47;;;;;;;0.90;0.70;;;;;;;6.46;85.08;96844.22;6254347;28;20240;-71
2021/12/29 11:41:49;;;;;;;0.67;0.67;;;;;;;6.41;85.00;96853.38;6252592;28;20332;-71
2021/12/29 11:44:51;;;;;;;2.03;0.90;;;;;;;6.29;85.69;96853.34;6253549;28;20235;-71
2021/12/29 11:47:54;;;;;;;0.90;0.90;;;;;;;6.28;85.55;96848.25;6240523;28;20488;-72
2021/12/29 11:51:03;;;;;;;1.77;1.20;;;;;;;6.26;85.82;96853.59;6229713;28;20228;-72
2021/12/29 11:54:13;;;;;;;3.07;1.27;;;;;;;6.28;85.91;96856.09;6246190;28;20324;-72
2021/12/29 11:57:21;;;;;;;1.03;0.93;;;;;;;6.30;85.94;96859.41;6253013;28;20223;-72
2021/12/29 12:00:24;;;;;;;1.73;1.40;;;;;;;6.29;86.08;96853.34;6253369;28;20333;-72
2021/12/29 12:03:39;;;;;;;2.23;1.30;;;;;;;6.28;86.81;96843.84;6243136;28;20263;-72
2021/12/29 12:06:44;;;;;;;1.23;1.13;;;;;;;6.29;86.31;96848.09;6236673;28;20224;-72
2021/12/29 12:09:48;;;;;;;2.03;1.20;;;;;;;6.27;86.53;96857.91;6252592;28;20235;-72
2021/12/29 12:12:53;;;;;;;1.33;1.10;;;;;;;6.24;86.73;96846.81;6251496;28;20730;-72
2021/12/29 12:16:13;;;;;;;2.40;1.20;;;;;;;6.24;86.97;96846.81;6252513;28;21053;-71
2021/12/29 12:19:25;;;;;;;1.80;1.10;;;;;;;6.23;87.35;96853.00;6253034;28;20239;-72
2021/12/29 12:22:28;;;;;;;1.73;1.30;;;;;;;6.33;86.75;96853.13;6250644;28;20286;-72
2021/12/29 12:25:32;;;;;;;1.07;1.00;;;;;;;6.45;86.55;96846.94;6251850;28;20256;-72
2021/12/29 12:28:49;;;;;;;1.83;1.10;;;;;;;6.60;86.35;96849.19;6250436;28;20323;-72
2021/12/29 12:32:00;;;;;;;1.17;1.00;;;;;;;6.76;86.59;96850.66;6249860;28;20661;-72
2021/12/29 12:35:05;;;;;;;0.90;0.73;;;;;;;6.78;86.40;96857.44;6226098;28;20751;-72
2021/12/29 12:38:21;;;;;;;2.87;1.07;;;;;;;6.85;86.53;96855.16;6239030;28;20286;-72
2021/12/29 12:41:23;;;;;;;2.30;1.20;;;;;;;6.92;85.75;96856.34;6252773;28;20227;-72
2021/12/29 12:44:35;;;;;;;1.10;0.90;;;;;;;6.90;85.60;96856.47;6252267;28;20235;-72
2021/12/29 12:47:38;;;;;;;1.13;0.80;;;;;;;7.01;85.20;96858.22;6241158;28;20370;-72
2021/12/29 12:50:43;;;;;;;0.97;0.70;;;;;;;7.04;85.05;96861.47;6228729;28;20254;-72
2021/12/29 12:53:46;;;;;;;1.93;1.00;;;;;;;7.01;85.59;96866.94;6251857;28;20307;-73
2021/12/29 12:56:48;;;;;;;1.83;1.00;;;;;;;6.94;86.08;96870.19;6250819;28;20222;-72
2021/12/29 12:59:54;;;;;;;1.20;0.70;;;;;;;6.90;85.81;96863.50;6252353;28;20236;-72
2021/12/29 13:03:04;;;;;;;2.00;0.70;;;;;;;6.94;85.64;96857.06;6248745;28;20235;-72
2021/12/29 13:06:16;;;;;;;0.70;0.60;;;;;;;6.97;85.85;96870.78;6241790;28;20222;-72
2021/12/29 13:09:19;;;;;;;1.13;0.73;;;;;;;6.94;86.03;96868.38;6250636;28;20222;-72
2021/12/29 13:12:30;;;;;;;0.77;0.53;;;;;;;6.91;86.17;96870.41;6251759;28;20735;-72
2021/12/29 13:15:34;;;;;;;1.27;0.73;;;;;;;6.92;86.13;96885.19;6249768;28;20731;-72
2021/12/29 13:18:37;;;;;;;2.17;0.87;;;;;;;6.86;86.49;96886.53;6258006;28;20265;-72
2021/12/29 13:21:42;;;;;;;0.70;0.70;;;;;;;6.79;86.40;96882.69;6256540;28;20695;-72
2021/12/29 13:24:44;;;;;;;2.47;0.80;;;;;;;6.80;86.51;96889.59;6238097;28;20237;-72
2021/12/29 13:28:02;;;;;;;0.63;0.63;;;;;;;6.81;86.33;96895.69;6257588;28;20310;-72
2021/12/29 13:31:17;;;;;;;1.53;0.60;;;;;;;6.79;86.43;96901.03;6255705;28;20635;-72
2021/12/29 13:34:19;;;;;;;2.50;0.60;;;;;;;6.78;86.16;96893.31;6225034;28;20305;-72
2021/12/29 13:37:22;;;;;;;1.43;0.63;;;;;;;6.77;85.92;96899.50;6197677;28;20244;-72
2021/12/29 13:40:33;;;;;;;0.53;0.53;;;;;;;6.72;86.41;96905.09;6233274;28;20236;-72
2021/12/29 13:43:41;;;;;;;0.67;0.60;;;;;;;6.70;86.72;96917.47;6254068;28;20234;-72
2021/12/29 13:46:45;;;;;;;1.03;0.80;;;;;;;6.69;86.77;96917.63;6255922;28;20235;-72
2021/12/29 13:49:47;;;;;;;0.70;0.60;;;;;;;6.70;86.70;96919.28;6231847;28;20233;-72
2021/12/29 13:53:01;;;;;;;0.87;0.60;;;;;;;6.72;86.35;96914.75;6233633;28;20313;-72
2021/12/29 13:56:18;;;;;;;1.60;0.70;;;;;;;6.74;86.39;96929.41;6255586;28;20229;-72
2021/12/29 13:59:22;;;;;;;1.63;0.50;;;;;;;6.74;86.26;96936.44;6257010;28;20721;-72
2021/12/29 14:02:25;;;;;;;1.33;0.60;;;;;;;6.68;86.58;96932.53;6259350;28;20240;-72
2021/12/29 14:05:45;;;;;;;2.93;0.60;;;;;;;6.64;86.46;96950.25;6251817;28;20232;-72
2021/12/29 14:08:48;;;;;;;0.40;0.40;;;;;;;6.58;86.71;96944.66;6253392;28;20229;-72
2021/12/29 14:11:50;;;;;;;0.80;0.63;;;;;;;6.57;86.67;96956.94;6254432;28;20250;-72
2021/12/29 14:15:03;;;;;;;1.13;0.50;;;;;;;6.59;86.55;96959.41;6253786;28;20242;-72
2021/12/29 14:18:19;;;;;;;1.00;0.60;;;;;;;6.61;86.07;96960.13;6253339;28;20244;-72
2021/12/29 14:21:28;;;;;;;0.60;0.50;;;;;;;6.60;86.07;96961.09;6254555;28;20232;-72
2021/12/29 14:24:35;;;;;;;0.70;0.70;;;;;;;6.60;85.83;96969.78;6255919;28;20227;-72
2021/12/29 14:27:38;;;;;;;1.90;0.63;;;;;;;6.69;85.21;96978.75;6256373;28;20225;-72
2021/12/29 14:30:44;;;;;;;1.43;0.50;;;;;;;6.68;84.86;96969.22;6254332;28;20225;-72
2021/12/29 14:33:49;;;;;;;1.43;0.80;;;;;;;6.60;85.44;96972.41;6233167;28;20242;-72
2021/12/29 14:36:54;;;;;;;1.23;0.83;;;;;;;6.56;85.75;96978.84;6229955;28;20225;-72